Time;durP1;ratioP1;P1;durP2;ratioP2;P2;SDS_P1;SDS_P2;PMS_P1;PMS_P2;Temp;Humidity;BMP_temperature;BMP_pressure;BME280_temperature;BME280_humidity;BME280_pressure;Samples;Min_cycle;Max_cycle;Signal;HPM_P1;HPM_P2
2024/01/14 00:01:56;;;;;;;8.45;2.17;;;;;;;;;;5050925;28;20037;-70
2024/01/14 00:04:22;;;;;;;8.82;1.85;;;;;;;;;;5051638;28;20056;-70
2024/01/14 00:06:49;;;;;;;10.32;2.42;;;;;;;;;;5055578;28;20386;-70
2024/01/14 00:09:16;;;;;;;12.70;1.70;;;;;;;;;;5055244;28;20044;-70
2024/01/14 00:11:42;;;;;;;11.27;2.10;;;;;;;;;;5053866;28;20498;-70
2024/01/14 00:14:08;;;;;;;7.70;1.60;;;;;;;;;;5053793;28;20036;-70
2024/01/14 00:16:34;;;;;;;5.47;1.35;;;;;;;;;;5054896;28;20083;-70
2024/01/14 00:19:05;;;;;;;10.80;2.00;;;;;;;;;;5055381;28;20521;-70
2024/01/14 00:21:31;;;;;;;9.23;1.60;;;;;;;;;;5053799;28;20045;-70
2024/01/14 00:23:57;;;;;;;11.77;1.90;;;;;;;;;;5055181;28;20187;-70
2024/01/14 00:26:24;;;;;;;9.45;1.52;;;;;;;;;;5053318;28;20538;-70
2024/01/14 00:28:55;;;;;;;10.85;1.75;;;;;;;;;;5055769;28;20494;-70
2024/01/14 00:31:21;;;;;;;10.27;1.80;;;;;;;;;;5058701;22;20042;-67
2024/01/14 00:33:49;;;;;;;9.63;1.70;;;;;;;;;;5036336;28;20037;-65
2024/01/14 00:36:15;;;;;;;6.90;1.55;;;;;;;;;;5016988;28;20049;-66
2024/01/14 00:38:41;;;;;;;8.25;1.50;;;;;;;;;;5008860;28;20042;-67
2024/01/14 00:41:08;;;;;;;6.97;1.42;;;;;;;;;;5018662;22;20075;-67
2024/01/14 00:43:34;;;;;;;12.57;2.67;;;;;;;;;;5035725;28;20503;-67
2024/01/14 00:46:00;;;;;;;8.75;1.40;;;;;;;;;;5052215;28;20037;-67
2024/01/14 00:48:26;;;;;;;11.27;1.70;;;;;;;;;;5054470;28;20040;-67
2024/01/14 00:50:52;;;;;;;8.77;1.73;;;;;;;;;;5036152;28;20082;-67
2024/01/14 00:53:18;;;;;;;10.55;2.03;;;;;;;;;;5054444;28;20075;-67
2024/01/14 00:55:44;;;;;;;8.75;2.03;;;;;;;;;;5036410;28;20405;-67
2024/01/14 00:58:10;;;;;;;8.55;1.75;;;;;;;;;;5035799;28;20044;-67
2024/01/14 01:00:36;;;;;;;9.43;2.22;;;;;;;;;;5053861;28;20593;-67
2024/01/14 01:03:02;;;;;;;8.85;1.73;;;;;;;;;;5036424;28;20053;-67
2024/01/14 01:05:28;;;;;;;10.30;1.75;;;;;;;;;;5054153;28;20441;-67
2024/01/14 01:07:54;;;;;;;9.65;1.63;;;;;;;;;;5054362;28;20044;-67
2024/01/14 01:10:20;;;;;;;9.68;1.77;;;;;;;;;;5053697;28;20091;-67
2024/01/14 01:12:46;;;;;;;12.63;2.05;;;;;;;;;;5035723;28;20397;-67
2024/01/14 01:15:12;;;;;;;7.90;1.77;;;;;;;;;;5034514;28;20041;-67
2024/01/14 01:17:38;;;;;;;9.18;1.88;;;;;;;;;;5053735;28;20047;-67
2024/01/14 01:20:07;;;;;;;3.75;1.65;;;;;;;;;;5053012;28;20115;-67
2024/01/14 01:22:33;;;;;;;12.38;1.33;;;;;;;;;;5050335;28;20056;-67
2024/01/14 01:24:59;;;;;;;11.48;1.48;;;;;;;;;;5052931;28;20041;-67
2024/01/14 01:27:26;;;;;;;7.88;1.55;;;;;;;;;;5034916;28;20410;-67
2024/01/14 01:29:52;;;;;;;9.18;1.48;;;;;;;;;;5052895;28;20060;-67
2024/01/14 01:32:18;;;;;;;8.57;1.45;;;;;;;;;;5051843;28;20036;-67
2024/01/14 01:34:45;;;;;;;7.97;1.60;;;;;;;;;;5053284;28;20112;-67
2024/01/14 01:37:11;;;;;;;8.88;1.48;;;;;;;;;;5053026;28;20041;-67
2024/01/14 01:39:37;;;;;;;8.77;1.40;;;;;;;;;;5035632;28;20099;-67
2024/01/14 01:42:03;;;;;;;8.80;1.67;;;;;;;;;;5052897;28;20073;-67
2024/01/14 01:44:30;;;;;;;11.23;1.58;;;;;;;;;;5035167;28;20385;-67
2024/01/14 01:46:56;;;;;;;6.82;1.63;;;;;;;;;;5052893;28;20396;-67
2024/01/14 01:49:23;;;;;;;9.90;1.40;;;;;;;;;;5034465;28;20060;-67
2024/01/14 01:51:49;;;;;;;13.88;1.83;;;;;;;;;;5034283;28;20048;-67
2024/01/14 01:54:18;;;;;;;14.25;1.80;;;;;;;;;;5034652;28;20042;-67
2024/01/14 01:56:44;;;;;;;9.35;1.55;;;;;;;;;;5037152;28;20077;-67
2024/01/14 01:59:10;;;;;;;10.05;1.75;;;;;;;;;;5044843;28;20087;-67
2024/01/14 02:01:36;;;;;;;8.43;1.50;;;;;;;;;;5052118;28;20095;-67
2024/01/14 02:04:03;;;;;;;10.90;1.88;;;;;;;;;;5034781;28;20041;-67
2024/01/14 02:06:29;;;;;;;11.65;1.35;;;;;;;;;;5034855;28;20132;-67
2024/01/14 02:08:55;;;;;;;6.95;1.38;;;;;;;;;;5034314;28;20469;-67
2024/01/14 02:11:21;;;;;;;7.85;1.83;;;;;;;;;;5034520;28;20053;-67
2024/01/14 02:13:47;;;;;;;9.38;1.80;;;;;;;;;;5052911;28;20459;-67
2024/01/14 02:16:13;;;;;;;12.50;1.60;;;;;;;;;;5052311;28;20033;-67
2024/01/14 02:18:39;;;;;;;15.57;1.88;;;;;;;;;;5051884;28;20033;-67
2024/01/14 02:21:07;;;;;;;7.43;1.60;;;;;;;;;;5051452;28;20565;-67
2024/01/14 02:23:35;;;;;;;8.52;1.30;;;;;;;;;;5033450;28;20049;-67
2024/01/14 02:26:01;;;;;;;13.40;1.45;;;;;;;;;;5034072;28;20041;-67
2024/01/14 02:28:27;;;;;;;9.23;1.48;;;;;;;;;;5034435;28;20060;-67
2024/01/14 02:30:53;;;;;;;9.07;1.58;;;;;;;;;;5051906;28;20037;-67
2024/01/14 02:33:20;;;;;;;8.02;1.63;;;;;;;;;;5052275;28;20496;-67
2024/01/14 02:35:46;;;;;;;12.60;1.50;;;;;;;;;;5034358;28;20072;-67
2024/01/14 02:38:12;;;;;;;11.15;1.60;;;;;;;;;;5050635;28;20099;-67
2024/01/14 02:40:38;;;;;;;10.32;1.50;;;;;;;;;;5033410;28;20408;-67
2024/01/14 02:43:04;;;;;;;9.55;1.60;;;;;;;;;;5052380;28;20115;-67
2024/01/14 02:45:30;;;;;;;10.32;1.63;;;;;;;;;;5033638;28;20045;-67
2024/01/14 02:47:57;;;;;;;17.33;2.08;;;;;;;;;;5030624;28;20037;-67
2024/01/14 02:50:23;;;;;;;11.43;1.67;;;;;;;;;;5032853;28;20040;-67
2024/01/14 02:52:49;;;;;;;16.10;1.63;;;;;;;;;;5047921;28;20045;-67
2024/01/14 02:55:15;;;;;;;7.15;1.35;;;;;;;;;;5052291;28;20044;-67
2024/01/14 02:57:41;;;;;;;12.40;1.70;;;;;;;;;;5052230;28;20083;-67
2024/01/14 03:00:08;;;;;;;15.80;2.30;;;;;;;;;;5033434;28;20060;-67
2024/01/14 03:02:34;;;;;;;16.80;2.17;;;;;;;;;;5049377;28;20397;-67
2024/01/14 03:05:00;;;;;;;9.88;1.80;;;;;;;;;;5033589;28;20045;-67
2024/01/14 03:07:26;;;;;;;12.52;1.80;;;;;;;;;;5033139;28;20048;-67
2024/01/14 03:09:52;;;;;;;11.23;1.67;;;;;;;;;;5032884;28;20577;-67
2024/01/14 03:12:18;;;;;;;8.52;1.73;;;;;;;;;;5033461;28;20064;-67
2024/01/14 03:14:44;;;;;;;10.00;1.55;;;;;;;;;;5051516;28;20033;-67
2024/01/14 03:17:10;;;;;;;13.35;2.08;;;;;;;;;;5051660;28;20040;-67
2024/01/14 03:19:36;;;;;;;8.93;2.20;;;;;;;;;;5051403;28;20041;-68
2024/01/14 03:22:02;;;;;;;11.80;1.70;;;;;;;;;;5051258;28;20098;-68
2024/01/14 03:24:28;;;;;;;13.10;2.28;;;;;;;;;;5033440;28;20056;-68
2024/01/14 03:26:54;;;;;;;6.57;1.48;;;;;;;;;;5051985;28;20041;-68
2024/01/14 03:29:20;;;;;;;17.15;2.60;;;;;;;;;;5051186;28;20037;-67
2024/01/14 03:31:46;;;;;;;9.32;1.30;;;;;;;;;;5032706;28;20441;-67
2024/01/14 03:34:12;;;;;;;10.50;1.77;;;;;;;;;;5050639;28;20044;-67
2024/01/14 03:36:38;;;;;;;11.70;1.70;;;;;;;;;;5050401;28;20136;-67
2024/01/14 03:39:04;;;;;;;7.43;1.40;;;;;;;;;;5051686;28;20037;-67
2024/01/14 03:41:30;;;;;;;5.93;1.50;;;;;;;;;;5046549;28;20045;-67
2024/01/14 03:43:56;;;;;;;13.80;1.70;;;;;;;;;;5050741;28;20041;-67
2024/01/14 03:46:23;;;;;;;13.93;1.83;;;;;;;;;;5033562;28;20098;-68
2024/01/14 03:48:49;;;;;;;11.07;1.88;;;;;;;;;;5033957;28;20045;-68
2024/01/14 03:51:15;;;;;;;10.13;2.00;;;;;;;;;;5049404;28;20041;-68
2024/01/14 03:53:40;;;;;;;10.85;1.50;;;;;;;;;;5051606;28;20036;-68
2024/01/14 03:56:06;;;;;;;8.50;1.70;;;;;;;;;;5051360;28;20086;-68
2024/01/14 03:58:32;;;;;;;9.82;1.67;;;;;;;;;;5051383;28;20037;-68
2024/01/14 04:00:58;;;;;;;12.30;1.90;;;;;;;;;;5032035;28;20068;-67
2024/01/14 04:03:24;;;;;;;14.70;1.70;;;;;;;;;;5033243;28;20179;-67
2024/01/14 04:05:50;;;;;;;11.85;1.70;;;;;;;;;;5051472;28;20408;-67
2024/01/14 04:08:16;;;;;;;9.85;1.83;;;;;;;;;;5033193;28;20117;-67
2024/01/14 04:10:42;;;;;;;10.10;2.08;;;;;;;;;;5050630;28;20516;-67
2024/01/14 04:13:08;;;;;;;8.30;1.83;;;;;;;;;;5033017;28;20172;-67
2024/01/14 04:15:35;;;;;;;7.43;1.58;;;;;;;;;;5033247;28;20047;-67
2024/01/14 04:18:01;;;;;;;10.00;1.60;;;;;;;;;;5032411;28;20080;-67
2024/01/14 04:20:27;;;;;;;11.23;1.98;;;;;;;;;;5032463;28;20063;-68
2024/01/14 04:22:53;;;;;;;9.85;2.05;;;;;;;;;;5050805;28;20040;-68
2024/01/14 04:25:19;;;;;;;8.82;1.30;;;;;;;;;;5050955;28;20407;-68
2024/01/14 04:27:45;;;;;;;7.75;1.80;;;;;;;;;;5033039;28;20037;-68
2024/01/14 04:30:11;;;;;;;11.70;2.20;;;;;;;;;;5032468;28;20063;-68
2024/01/14 04:32:37;;;;;;;13.98;1.90;;;;;;;;;;5031613;28;20045;-68
2024/01/14 04:35:03;;;;;;;4.50;1.50;;;;;;;;;;5049739;28;20102;-68
2024/01/14 04:37:29;;;;;;;8.88;1.67;;;;;;;;;;5047670;28;20128;-68
2024/01/14 04:39:55;;;;;;;10.68;2.22;;;;;;;;;;5031444;28;20132;-68
2024/01/14 04:42:23;;;;;;;12.18;1.48;;;;;;;;;;5029965;28;20053;-68
2024/01/14 04:44:49;;;;;;;11.48;1.63;;;;;;;;;;5049519;28;20045;-67
2024/01/14 04:47:15;;;;;;;10.77;1.48;;;;;;;;;;5033747;28;20037;-67
2024/01/14 04:49:41;;;;;;;6.28;1.10;;;;;;;;;;5033960;28;20056;-68
2024/01/14 04:52:07;;;;;;;10.55;1.90;;;;;;;;;;5054097;28;20124;-68
2024/01/14 04:54:33;;;;;;;6.97;1.40;;;;;;;;;;5036730;28;20036;-68
2024/01/14 04:56:59;;;;;;;7.03;1.30;;;;;;;;;;5037265;28;20389;-68
2024/01/14 04:59:25;;;;;;;9.95;1.27;;;;;;;;;;5054361;28;20405;-68
2024/01/14 05:01:51;;;;;;;8.07;1.65;;;;;;;;;;5042869;28;20025;-68
2024/01/14 05:04:17;;;;;;;10.73;1.52;;;;;;;;;;5049100;28;20392;-68
2024/01/14 05:06:43;;;;;;;5.90;1.38;;;;;;;;;;5051850;28;20037;-68
2024/01/14 05:09:09;;;;;;;12.90;1.98;;;;;;;;;;5036456;28;20056;-68
2024/01/14 05:11:35;;;;;;;8.57;1.50;;;;;;;;;;5052778;28;20049;-68
2024/01/14 05:14:01;;;;;;;6.72;1.50;;;;;;;;;;5053788;28;20037;-68
2024/01/14 05:16:27;;;;;;;8.23;1.40;;;;;;;;;;5053658;28;20033;-68
2024/01/14 05:18:54;;;;;;;8.13;1.20;;;;;;;;;;5053997;28;20055;-68
2024/01/14 05:21:20;;;;;;;5.75;1.13;;;;;;;;;;5034831;28;20044;-68
2024/01/14 05:23:46;;;;;;;7.47;1.38;;;;;;;;;;5053798;28;20102;-68
2024/01/14 05:26:12;;;;;;;9.77;1.33;;;;;;;;;;5049749;28;20090;-68
2024/01/14 05:28:38;;;;;;;9.55;1.50;;;;;;;;;;5036191;28;20049;-68
2024/01/14 05:31:04;;;;;;;7.18;1.27;;;;;;;;;;5052435;28;20044;-68
2024/01/14 05:33:30;;;;;;;6.63;1.23;;;;;;;;;;5050930;28;20029;-67
2024/01/14 05:35:56;;;;;;;7.18;1.30;;;;;;;;;;5030214;28;20041;-67
2024/01/14 05:38:22;;;;;;;9.57;1.25;;;;;;;;;;5052416;28;20037;-67
2024/01/14 05:40:48;;;;;;;7.70;1.30;;;;;;;;;;5050494;28;20445;-67
2024/01/14 05:43:14;;;;;;;7.35;1.40;;;;;;;;;;5034703;28;20041;-68
2024/01/14 05:45:41;;;;;;;5.38;1.25;;;;;;;;;;5053415;28;20044;-67
2024/01/14 05:48:07;;;;;;;7.43;1.30;;;;;;;;;;5052212;28;20205;-67
2024/01/14 05:50:33;;;;;;;6.28;1.15;;;;;;;;;;5027053;28;20052;-67
2024/01/14 05:52:59;;;;;;;8.18;1.45;;;;;;;;;;5034586;28;20049;-67
2024/01/14 05:55:25;;;;;;;4.25;1.08;;;;;;;;;;5035022;28;20036;-67
2024/01/14 05:57:51;;;;;;;4.10;1.05;;;;;;;;;;5052310;28;20119;-67
2024/01/14 06:00:22;;;;;;;6.93;1.20;;;;;;;;;;5052130;28;20524;-67
2024/01/14 06:02:48;;;;;;;6.22;1.05;;;;;;;;;;5034291;28;20462;-67
2024/01/14 06:05:15;;;;;;;10.43;1.40;;;;;;;;;;5035375;28;20124;-67
2024/01/14 06:07:41;;;;;;;5.25;1.30;;;;;;;;;;5034008;28;20397;-67
2024/01/14 06:10:07;;;;;;;4.40;1.20;;;;;;;;;;5050966;28;20044;-67
2024/01/14 06:12:33;;;;;;;2.72;1.20;;;;;;;;;;5052139;28;20036;-67
2024/01/14 06:14:59;;;;;;;9.75;1.23;;;;;;;;;;5052911;28;20541;-67
2024/01/14 06:17:25;;;;;;;10.43;1.63;;;;;;;;;;5047469;28;20044;-67
2024/01/14 06:19:51;;;;;;;5.65;1.42;;;;;;;;;;5045161;28;20037;-67
2024/01/14 06:22:17;;;;;;;7.47;1.88;;;;;;;;;;5034488;28;20047;-67
2024/01/14 06:24:46;;;;;;;9.23;1.48;;;;;;;;;;5039552;28;20417;-67
2024/01/14 06:27:12;;;;;;;6.63;1.02;;;;;;;;;;5047447;28;20041;-67
2024/01/14 06:29:40;;;;;;;10.88;1.20;;;;;;;;;;5047308;28;20108;-67
2024/01/14 06:32:06;;;;;;;7.93;1.30;;;;;;;;;;5029855;28;20078;-67
2024/01/14 06:34:32;;;;;;;8.25;1.20;;;;;;;;;;5025213;28;20136;-68
2024/01/14 06:36:58;;;;;;;9.52;1.75;;;;;;;;;;5028014;28;21099;-68
2024/01/14 06:39:24;;;;;;;10.65;1.65;;;;;;;;;;5037950;28;20032;-68
2024/01/14 06:41:51;;;;;;;8.43;1.60;;;;;;;;;;5083796;22;20044;-69
2024/01/14 06:44:18;;;;;;;10.93;1.77;;;;;;;;;;5042658;28;20048;-69
2024/01/14 06:46:44;;;;;;;8.43;1.40;;;;;;;;;;5042660;28;20159;-69
2024/01/14 06:49:10;;;;;;;10.15;1.70;;;;;;;;;;5058256;28;20407;-70
2024/01/14 06:51:43;;;;;;;8.25;1.80;;;;;;;;;;5041011;28;20491;-70
2024/01/14 06:54:09;;;;;;;9.75;1.55;;;;;;;;;;5038433;28;20038;-70
2024/01/14 06:56:41;;;;;;;8.75;1.83;;;;;;;;;;5031506;28;20036;-71
2024/01/14 06:59:10;;;;;;;14.40;1.80;;;;;;;;;;5037794;28;20072;-71
2024/01/14 07:01:36;;;;;;;8.70;1.52;;;;;;;;;;5030956;28;20049;-71
2024/01/14 07:04:02;;;;;;;11.10;1.60;;;;;;;;;;4997723;28;20063;-70
2024/01/14 07:06:28;;;;;;;6.22;1.60;;;;;;;;;;5038585;28;20495;-70
2024/01/14 07:08:54;;;;;;;8.07;1.80;;;;;;;;;;5018767;28;20080;-70
2024/01/14 07:11:20;;;;;;;6.80;1.40;;;;;;;;;;5032717;28;20061;-71
2024/01/14 07:13:46;;;;;;;3.83;1.10;;;;;;;;;;5030281;28;20080;-70
2024/01/14 07:16:12;;;;;;;7.65;1.33;;;;;;;;;;5029906;28;20494;-70
2024/01/14 07:18:38;;;;;;;6.25;1.30;;;;;;;;;;5032176;28;20073;-71
2024/01/14 07:21:04;;;;;;;8.05;1.52;;;;;;;;;;5016433;28;20120;-71
2024/01/14 07:23:31;;;;;;;7.35;1.50;;;;;;;;;;5020684;28;20044;-71
2024/01/14 07:25:57;;;;;;;5.18;1.20;;;;;;;;;;5038837;28;20091;-71
2024/01/14 07:28:23;;;;;;;7.53;1.38;;;;;;;;;;5020403;28;20048;-70
2024/01/14 07:30:49;;;;;;;5.40;1.17;;;;;;;;;;5036203;28;20041;-70
2024/01/14 07:33:15;;;;;;;9.10;1.50;;;;;;;;;;5035532;28;20033;-70
2024/01/14 07:35:41;;;;;;;9.13;1.88;;;;;;;;;;5021760;28;20088;-70
2024/01/14 07:38:07;;;;;;;6.82;1.27;;;;;;;;;;5036122;28;20037;-70
2024/01/14 07:40:33;;;;;;;7.32;1.45;;;;;;;;;;5017956;28;20076;-70
2024/01/14 07:42:59;;;;;;;8.63;1.98;;;;;;;;;;5016974;28;20048;-70
2024/01/14 07:45:25;;;;;;;5.85;1.48;;;;;;;;;;5031914;28;20029;-70
2024/01/14 07:47:51;;;;;;;7.53;1.45;;;;;;;;;;5040422;28;20045;-70
2024/01/14 07:50:17;;;;;;;5.20;1.20;;;;;;;;;;5024430;28;20499;-70
2024/01/14 07:52:42;;;;;;;8.73;1.20;;;;;;;;;;5044619;28;20187;-70
2024/01/14 07:55:08;;;;;;;3.65;1.20;;;;;;;;;;5015522;28;20049;-70
2024/01/14 07:57:34;;;;;;;6.63;1.27;;;;;;;;;;5017322;28;20045;-70
2024/01/14 08:00:00;;;;;;;7.55;1.27;;;;;;;;;;5036063;28;20517;-70
2024/01/14 08:02:26;;;;;;;6.07;1.00;;;;;;;;;;5036696;28;20416;-70
2024/01/14 08:04:52;;;;;;;6.05;1.17;;;;;;;;;;5038824;28;20033;-70
2024/01/14 08:07:19;;;;;;;7.63;1.10;;;;;;;;;;5043029;28;20045;-70
2024/01/14 08:09:45;;;;;;;2.38;1.00;;;;;;;;;;5023705;28;20080;-71
2024/01/14 08:12:11;;;;;;;5.15;1.40;;;;;;;;;;5045960;28;20041;-71
2024/01/14 08:14:37;;;;;;;5.07;1.30;;;;;;;;;;5051404;28;20618;-71
2024/01/14 08:17:03;;;;;;;8.07;1.73;;;;;;;;;;5031458;28;20351;-71
2024/01/14 08:19:29;;;;;;;5.03;1.58;;;;;;;;;;5039319;28;20045;-71
2024/01/14 08:21:55;;;;;;;4.03;1.35;;;;;;;;;;5031680;28;20036;-71
2024/01/14 08:24:21;;;;;;;7.00;1.50;;;;;;;;;;5049696;28;20041;-71
2024/01/14 08:26:47;;;;;;;14.68;1.65;;;;;;;;;;5037314;28;20041;-71
2024/01/14 08:29:13;;;;;;;5.53;1.63;;;;;;;;;;5031912;28;20509;-71
2024/01/14 08:31:40;;;;;;;6.55;1.52;;;;;;;;;;5042986;28;20092;-71
2024/01/14 08:34:07;;;;;;;6.63;1.60;;;;;;;;;;5054876;28;20045;-71
2024/01/14 08:36:33;;;;;;;8.32;1.75;;;;;;;;;;5037842;28;20042;-71
2024/01/14 08:38:59;;;;;;;5.97;1.63;;;;;;;;;;5028546;28;20399;-71
2024/01/14 08:41:26;;;;;;;5.93;2.03;;;;;;;;;;5030808;28;20048;-71
2024/01/14 08:43:52;;;;;;;6.22;1.90;;;;;;;;;;5049186;28;20087;-71
2024/01/14 08:46:18;;;;;;;5.32;1.70;;;;;;;;;;5036845;28;20438;-71
2024/01/14 08:48:44;;;;;;;7.18;1.67;;;;;;;;;;5054793;28;20041;-71
2024/01/14 08:51:12;;;;;;;7.68;1.60;;;;;;;;;;5047151;28;20098;-71
2024/01/14 08:53:38;;;;;;;6.25;1.83;;;;;;;;;;5054751;28;20049;-71
2024/01/14 08:56:04;;;;;;;8.65;2.13;;;;;;;;;;5054666;28;20467;-71
2024/01/14 08:58:30;;;;;;;6.32;2.25;;;;;;;;;;5036515;28;20033;-71
2024/01/14 09:00:56;;;;;;;9.77;2.33;;;;;;;;;;5031097;28;20048;-71
2024/01/14 09:03:22;;;;;;;11.43;2.30;;;;;;;;;;5053311;28;20116;-71
2024/01/14 09:05:48;;;;;;;4.47;2.17;;;;;;;;;;5024531;28;20049;-71
2024/01/14 09:08:14;;;;;;;7.55;2.20;;;;;;;;;;5053189;28;20124;-71
2024/01/14 09:10:40;;;;;;;5.28;2.20;;;;;;;;;;5046743;28;20482;-71
2024/01/14 09:13:06;;;;;;;8.65;2.60;;;;;;;;;;5054199;28;20080;-71
2024/01/14 09:15:32;;;;;;;6.18;2.80;;;;;;;;;;5036261;28;20503;-71
2024/01/14 09:17:58;;;;;;;4.32;2.38;;;;;;;;;;5053407;28;20399;-71
2024/01/14 09:20:24;;;;;;;11.95;2.83;;;;;;;;;;5045275;28;20079;-71
2024/01/14 09:22:50;;;;;;;7.65;3.13;;;;;;;;;;5053828;28;20080;-71
2024/01/14 09:25:16;;;;;;;6.82;2.75;;;;;;;;;;5045801;28;20041;-71
2024/01/14 09:27:42;;;;;;;10.50;2.38;;;;;;;;;;5036103;28;20036;-71
2024/01/14 09:30:08;;;;;;;9.27;2.42;;;;;;;;;;5018406;28;20408;-71
2024/01/14 09:32:34;;;;;;;8.25;2.33;;;;;;;;;;5031831;28;20038;-71
2024/01/14 09:35:00;;;;;;;7.15;2.97;;;;;;;;;;5033509;28;20483;-71
2024/01/14 09:37:26;;;;;;;7.72;2.42;;;;;;;;;;5052727;28;20414;-71
2024/01/14 09:39:52;;;;;;;7.00;1.98;;;;;;;;;;5047470;28;20048;-71
2024/01/14 09:42:34;;;;;;;6.97;1.90;;;;;;;;;;5051944;28;20516;-71
2024/01/14 09:45:01;;;;;;;7.47;1.70;;;;;;;;;;5049144;28;20564;-71
2024/01/14 09:47:28;;;;;;;6.85;1.77;;;;;;;;;;5047073;28;20399;-71
2024/01/14 09:49:57;;;;;;;5.63;1.77;;;;;;;;;;5047289;28;20077;-71
2024/01/14 09:52:24;;;;;;;10.02;2.13;;;;;;;;;;5053274;28;20549;-71
2024/01/14 09:54:50;;;;;;;3.40;1.60;;;;;;;;;;5053390;28;20041;-71
2024/01/14 09:57:18;;;;;;;4.13;2.05;;;;;;;;;;5053361;28;20108;-71
2024/01/14 09:59:45;;;;;;;5.55;2.67;;;;;;;;;;5047032;28;20037;-71
2024/01/14 10:02:12;;;;;;;8.25;3.25;;;;;;;;;;5048921;28;20037;-71
2024/01/14 10:04:42;;;;;;;7.40;3.72;;;;;;;;;;5049594;28;20487;-71
2024/01/14 10:07:09;;;;;;;9.98;4.30;;;;;;;;;;5045610;28;20037;-71
2024/01/14 10:09:35;;;;;;;9.98;5.10;;;;;;;;;;5026437;28;20044;-71
2024/01/14 10:12:02;;;;;;;10.55;5.63;;;;;;;;;;5052861;28;20068;-71
2024/01/14 10:14:28;;;;;;;13.43;6.25;;;;;;;;;;5052646;28;20506;-71
2024/01/14 10:16:58;;;;;;;14.82;6.55;;;;;;;;;;5031007;28;20419;-71
2024/01/14 10:19:24;;;;;;;18.00;6.78;;;;;;;;;;5047523;28;20044;-71
2024/01/14 10:21:55;;;;;;;16.42;7.68;;;;;;;;;;5047331;28;20072;-71
2024/01/14 10:24:21;;;;;;;19.73;8.30;;;;;;;;;;5052738;28;20072;-71
2024/01/14 10:26:54;;;;;;;23.15;8.93;;;;;;;;;;5052698;28;20045;-71
2024/01/14 10:29:20;;;;;;;22.27;9.10;;;;;;;;;;5047798;28;20091;-71
2024/01/14 10:31:47;;;;;;;20.55;9.65;;;;;;;;;;5052157;28;20065;-71
2024/01/14 10:34:13;;;;;;;21.85;9.95;;;;;;;;;;5052620;28;20103;-71
2024/01/14 10:36:39;;;;;;;22.27;9.57;;;;;;;;;;5031660;28;20052;-71
2024/01/14 10:39:07;;;;;;;21.25;9.60;;;;;;;;;;5029165;28;20048;-71
2024/01/14 10:41:33;;;;;;;21.33;9.57;;;;;;;;;;5031886;28;20073;-71
2024/01/14 10:43:59;;;;;;;22.25;9.57;;;;;;;;;;5014639;28;20053;-71
2024/01/14 10:46:30;;;;;;;22.15;10.45;;;;;;;;;;5048974;28;20111;-71
2024/01/14 10:49:05;;;;;;;31.27;12.13;;;;;;;;;;5043642;28;20042;-71
2024/01/14 10:51:32;;;;;;;25.88;12.30;;;;;;;;;;5035848;28;20227;-71
2024/01/14 10:54:20;;;;;;;28.40;12.30;;;;;;;;;;5029237;28;20072;-71
2024/01/14 10:56:52;;;;;;;25.45;12.10;;;;;;;;;;5051166;28;20032;-71
2024/01/14 10:59:19;;;;;;;28.75;13.07;;;;;;;;;;5039976;28;20041;-71
2024/01/14 11:01:49;;;;;;;33.58;12.90;;;;;;;;;;5045113;28;20099;-71
2024/01/14 11:04:17;;;;;;;25.98;11.82;;;;;;;;;;5042241;28;20048;-71
2024/01/14 11:06:45;;;;;;;28.20;12.40;;;;;;;;;;5052349;28;20115;-71
2024/01/14 11:09:11;;;;;;;31.05;12.65;;;;;;;;;;5052185;28;20052;-71
2024/01/14 11:11:41;;;;;;;28.08;12.18;;;;;;;;;;5044884;28;20410;-71
2024/01/14 11:14:17;;;;;;;27.03;13.30;;;;;;;;;;5052084;28;20487;-71
2024/01/14 11:16:45;;;;;;;31.20;13.23;;;;;;;;;;5034099;28;20307;-71
2024/01/14 11:19:14;;;;;;;29.33;12.02;;;;;;;;;;5038076;28;20099;-71
2024/01/14 11:21:40;;;;;;;26.92;11.85;;;;;;;;;;5040925;28;20112;-71
2024/01/14 11:24:06;;;;;;;27.63;11.38;;;;;;;;;;5048245;28;20048;-71
2024/01/14 11:26:32;;;;;;;24.42;11.35;;;;;;;;;;5051740;28;20048;-71
2024/01/14 11:29:00;;;;;;;30.90;11.45;;;;;;;;;;5051898;28;20086;-71
2024/01/14 11:31:45;;;;;;;25.30;11.25;;;;;;;;;;5043751;28;20051;-71
2024/01/14 11:34:31;;;;;;;22.33;10.02;;;;;;;;;;5048120;28;20068;-71
2024/01/14 11:36:57;;;;;;;23.05;9.02;;;;;;;;;;5051826;28;20071;-71
2024/01/14 11:39:23;;;;;;;26.48;10.48;;;;;;;;;;5051555;28;20076;-71
2024/01/14 11:41:49;;;;;;;24.25;11.25;;;;;;;;;;5022266;28;20049;-71
2024/01/14 11:44:30;;;;;;;27.92;11.52;;;;;;;;;;5031425;28;20083;-71
2024/01/14 11:46:56;;;;;;;24.60;10.65;;;;;;;;;;5051629;28;20040;-71
2024/01/14 11:49:23;;;;;;;29.83;10.63;;;;;;;;;;5033361;28;20120;-71
2024/01/14 11:51:53;;;;;;;25.65;11.02;;;;;;;;;;5027203;28;20549;-71
2024/01/14 11:54:19;;;;;;;22.55;9.50;;;;;;;;;;5033614;28;20086;-71
2024/01/14 11:56:45;;;;;;;20.00;9.40;;;;;;;;;;5033793;28;20049;-71
2024/01/14 11:59:13;;;;;;;23.05;10.63;;;;;;;;;;5053202;28;20504;-71
2024/01/14 12:01:39;;;;;;;23.85;10.02;;;;;;;;;;5050003;28;20049;-71
2024/01/14 12:04:11;;;;;;;21.10;9.15;;;;;;;;;;5055485;28;20041;-71
2024/01/14 12:06:43;;;;;;;23.05;10.30;;;;;;;;;;5042909;28;20415;-71
2024/01/14 12:09:10;;;;;;;27.20;12.18;;;;;;;;;;5052037;28;20550;-71
2024/01/14 12:11:36;;;;;;;24.10;10.63;;;;;;;;;;5050424;28;20120;-71
2024/01/14 12:14:03;;;;;;;21.75;10.20;;;;;;;;;;5055377;28;20045;-71
2024/01/14 12:16:32;;;;;;;23.60;10.90;;;;;;;;;;5037379;28;20048;-71
2024/01/14 12:18:59;;;;;;;21.10;9.55;;;;;;;;;;5048402;28;20315;-71
2024/01/14 12:21:26;;;;;;;22.65;10.38;;;;;;;;;;5048942;28;20131;-71
2024/01/14 12:23:52;;;;;;;24.85;11.27;;;;;;;;;;5041910;28;20048;-71
2024/01/14 12:26:19;;;;;;;23.88;11.63;;;;;;;;;;5055115;28;20147;-71
2024/01/14 12:28:45;;;;;;;26.83;12.15;;;;;;;;;;5055138;28;20068;-71
2024/01/14 12:31:18;;;;;;;28.63;12.32;;;;;;;;;;5032658;28;20529;-71
2024/01/14 12:33:47;;;;;;;29.65;12.25;;;;;;;;;;5046756;28;20040;-71
2024/01/14 12:36:16;;;;;;;32.17;13.02;;;;;;;;;;5036908;28;20520;-71
2024/01/14 12:38:42;;;;;;;24.10;11.93;;;;;;;;;;5049482;28;20088;-71
2024/01/14 12:41:08;;;;;;;27.25;12.98;;;;;;;;;;5064274;22;20039;-68
2024/01/14 12:43:34;;;;;;;28.40;12.80;;;;;;;;;;5054540;28;20048;-68
2024/01/14 12:46:02;;;;;;;28.02;13.77;;;;;;;;;;5054174;28;20075;-68
2024/01/14 12:48:28;;;;;;;31.13;13.55;;;;;;;;;;5054425;28;20083;-68
2024/01/14 12:50:56;;;;;;;27.52;13.52;;;;;;;;;;5071000;22;20032;-68
2024/01/14 12:53:22;;;;;;;32.88;14.07;;;;;;;;;;5056025;28;20116;-68
2024/01/14 12:55:48;;;;;;;31.52;14.48;;;;;;;;;;5056704;28;20036;-69
2024/01/14 12:58:14;;;;;;;34.40;15.23;;;;;;;;;;5074215;28;20039;-68
2024/01/14 13:00:41;;;;;;;39.15;15.15;;;;;;;;;;5053488;28;20135;-68
2024/01/14 13:03:08;;;;;;;32.70;14.38;;;;;;;;;;5073862;28;20423;-69
2024/01/14 13:05:34;;;;;;;33.85;14.77;;;;;;;;;;5066331;28;20267;-69
2024/01/14 13:08:00;;;;;;;32.35;15.27;;;;;;;;;;5058593;28;20052;-68
2024/01/14 13:10:26;;;;;;;32.92;14.20;;;;;;;;;;5053325;28;20114;-68
2024/01/14 13:12:53;;;;;;;33.47;14.13;;;;;;;;;;5074113;28;20170;-68
2024/01/14 13:15:19;;;;;;;37.83;14.80;;;;;;;;;;5074021;28;20045;-68
2024/01/14 13:17:45;;;;;;;29.83;15.38;;;;;;;;;;5056854;28;20040;-65
2024/01/14 13:20:11;;;;;;;34.70;15.70;;;;;;;;;;5073467;28;20040;-70
2024/01/14 13:22:38;;;;;;;31.05;13.50;;;;;;;;;;5055735;28;20072;-70
2024/01/14 13:25:04;;;;;;;34.70;15.20;;;;;;;;;;5075117;28;20044;-70
2024/01/14 13:27:31;;;;;;;30.35;13.23;;;;;;;;;;5055965;28;20134;-70
2024/01/14 13:29:57;;;;;;;31.95;15.13;;;;;;;;;;5055379;28;20054;-72
2024/01/14 13:32:23;;;;;;;35.65;15.50;;;;;;;;;;5055441;28;20045;-71
2024/01/14 13:34:50;;;;;;;31.90;14.63;;;;;;;;;;5073735;28;20040;-71
2024/01/14 13:37:16;;;;;;;29.50;14.25;;;;;;;;;;5073822;28;20521;-71
2024/01/14 13:39:44;;;;;;;33.10;14.75;;;;;;;;;;5073058;28;20123;-71
2024/01/14 13:42:10;;;;;;;26.00;11.95;;;;;;;;;;5055030;28;20080;-71
2024/01/14 13:44:37;;;;;;;26.58;10.73;;;;;;;;;;5059780;28;20041;-71
2024/01/14 13:47:03;;;;;;;20.92;9.80;;;;;;;;;;5047188;28;20547;-71
2024/01/14 13:49:29;;;;;;;17.13;8.50;;;;;;;;;;5055420;28;20048;-71
2024/01/14 13:51:56;;;;;;;16.48;7.55;;;;;;;;;;5073066;28;20037;-71
2024/01/14 13:54:22;;;;;;;16.13;6.82;;;;;;;;;;5055337;28;20086;-72
2024/01/14 13:56:54;;;;;;;12.20;6.40;;;;;;;;;;5055339;28;20450;-72
2024/01/14 13:59:20;;;;;;;14.20;6.13;;;;;;;;;;5058983;28;20119;-72
2024/01/14 14:01:46;;;;;;;10.60;4.57;;;;;;;;;;5054823;28;20631;-71
2024/01/14 14:04:12;;;;;;;13.20;4.65;;;;;;;;;;5046933;28;20076;-71
2024/01/14 14:06:38;;;;;;;10.30;4.57;;;;;;;;;;5055338;28;20137;-71
2024/01/14 14:09:04;;;;;;;9.93;4.55;;;;;;;;;;5070557;28;20109;-71
2024/01/14 14:11:30;;;;;;;11.35;4.40;;;;;;;;;;5054695;28;20458;-71
2024/01/14 14:13:58;;;;;;;8.95;4.40;;;;;;;;;;5071977;28;20131;-71
2024/01/14 14:16:24;;;;;;;8.27;3.90;;;;;;;;;;5054428;28;20028;-71
2024/01/14 14:18:50;;;;;;;8.00;3.30;;;;;;;;;;5053735;28;20056;-71
2024/01/14 14:21:16;;;;;;;8.68;3.50;;;;;;;;;;5054407;28;20539;-70
2024/01/14 14:23:42;;;;;;;5.35;2.47;;;;;;;;;;5054064;28;20280;-71
2024/01/14 14:26:08;;;;;;;8.00;3.13;;;;;;;;;;5072691;28;20101;-70
2024/01/14 14:28:34;;;;;;;6.72;2.65;;;;;;;;;;5071711;28;20568;-70
2024/01/14 14:31:00;;;;;;;7.97;2.70;;;;;;;;;;5054305;28;20044;-70